createdAt,value
2023-01-29T00:02:25.506Z,1.39
2023-01-29T00:04:52.154Z,1.38
2023-01-29T00:07:21.680Z,1.38
2023-01-29T00:09:48.325Z,1.40
2023-01-29T00:12:14.934Z,1.41
2023-01-29T00:14:41.447Z,1.35
2023-01-29T00:17:08.011Z,1.32
2023-01-29T00:19:36.330Z,1.35
2023-01-29T00:22:02.855Z,1.31
2023-01-29T00:24:31.704Z,1.04
2023-01-29T00:27:00.476Z,1.11
2023-01-29T00:29:29.285Z,1.09
2023-01-29T00:31:56.013Z,1.02
2023-01-29T00:34:23.516Z,1.03
2023-01-29T00:36:52.459Z,0.98
2023-01-29T00:39:33.619Z,0.97
2023-01-29T00:42:25.215Z,0.49
2023-01-29T00:45:00.458Z,0.89
2023-01-29T00:47:36.464Z,0.86
2023-01-29T00:50:06.274Z,0.78
2023-01-29T00:52:32.995Z,0.83
2023-01-29T00:55:00.796Z,0.84
2023-01-29T00:57:31.912Z,0.84
2023-01-29T01:00:00.803Z,0.83
2023-01-29T01:02:46.330Z,0.77
2023-01-29T01:05:18.273Z,0.87
2023-01-29T01:07:50.160Z,0.78
2023-01-29T01:10:39.354Z,0.75
2023-01-29T01:13:07.752Z,0.96
2023-01-29T01:15:36.694Z,0.97
2023-01-29T01:18:04.082Z,0.98
2023-01-29T01:20:33.610Z,0.87
2023-01-29T01:23:00.225Z,0.94
2023-01-29T01:25:27.472Z,0.80
2023-01-29T01:27:55.688Z,1.01
2023-01-29T01:30:23.371Z,1.03
2023-01-29T01:32:52.478Z,0.90
2023-01-29T01:35:20.261Z,0.97
2023-01-29T01:37:46.791Z,0.90
2023-01-29T01:40:20.251Z,0.99
2023-01-29T01:42:56.460Z,1.05
2023-01-29T01:45:36.805Z,1.06
2023-01-29T01:48:19.571Z,1.00
2023-01-29T01:50:49.878Z,1.07
2023-01-29T01:53:26.662Z,1.09
2023-01-29T01:56:00.202Z,1.04
2023-01-29T01:58:59.428Z,1.11
2023-01-29T02:01:30.001Z,0.78
2023-01-29T02:04:26.573Z,0.77
2023-01-29T02:07:17.359Z,1.07
2023-01-29T02:10:12.467Z,1.16
2023-01-29T02:12:42.003Z,1.17
2023-01-29T02:15:11.043Z,0.96
2023-01-29T02:17:38.175Z,1.22
2023-01-29T02:20:19.872Z,1.22
2023-01-29T02:23:02.625Z,1.23
2023-01-29T02:25:55.939Z,1.24
2023-01-29T02:28:25.451Z,1.28
2023-01-29T02:31:08.618Z,1.15
2023-01-29T02:33:56.797Z,1.32
2023-01-29T02:36:32.911Z,1.20
2023-01-29T02:39:17.436Z,1.32
2023-01-29T02:41:55.339Z,1.34
2023-01-29T02:44:37.882Z,0.87
2023-01-29T02:47:17.110Z,1.37
2023-01-29T02:50:15.614Z,1.33
2023-01-29T02:52:56.903Z,1.29
2023-01-29T02:55:35.051Z,1.42
2023-01-29T02:58:16.130Z,1.31
2023-01-29T03:00:46.910Z,1.45
2023-01-29T03:03:18.837Z,1.41
2023-01-29T03:05:51.157Z,1.31
2023-01-29T03:08:36.806Z,1.45
2023-01-29T03:11:07.087Z,1.46
2023-01-29T03:13:59.897Z,1.38
2023-01-29T03:16:42.856Z,1.49
2023-01-29T03:19:17.298Z,1.51
2023-01-29T03:21:55.422Z,1.06
2023-01-29T03:25:12.877Z,1.55
2023-01-29T03:28:04.052Z,1.54
2023-01-29T03:30:52.728Z,1.49
2023-01-29T03:33:22.333Z,1.56
2023-01-29T03:36:25.058Z,1.57
2023-01-29T03:38:53.984Z,1.14
2023-01-29T03:41:28.339Z,1.57
2023-01-29T03:44:13.982Z,1.57
2023-01-29T03:47:13.728Z,1.58
2023-01-29T03:50:05.926Z,1.59
2023-01-29T03:52:42.863Z,1.63
2023-01-29T03:55:30.238Z,1.64
2023-01-29T03:58:20.224Z,1.62
2023-01-29T04:01:04.096Z,1.68
2023-01-29T04:03:37.549Z,1.72
2023-01-29T04:06:13.366Z,1.74
2023-01-29T04:09:03.499Z,1.76
2023-01-29T04:11:36.562Z,1.74
2023-01-29T04:14:06.821Z,1.79
2023-01-29T04:16:38.308Z,1.62
2023-01-29T04:19:06.010Z,1.80
2023-01-29T04:21:33.058Z,1.82
2023-01-29T04:23:59.758Z,1.82
2023-01-29T04:26:32.491Z,1.83
2023-01-29T04:29:06.525Z,1.82
2023-01-29T04:31:43.810Z,1.75
2023-01-29T04:34:23.291Z,1.85
2023-01-29T04:37:02.675Z,1.86
2023-01-29T04:39:43.765Z,1.76
2023-01-29T04:42:28.086Z,1.76
2023-01-29T04:45:03.722Z,1.88
2023-01-29T04:47:30.351Z,1.88
2023-01-29T04:50:22.431Z,1.91
2023-01-29T04:53:12.029Z,1.91
2023-01-29T04:55:51.883Z,1.82
2023-01-29T04:58:46.003Z,1.91
2023-01-29T05:01:18.553Z,1.75
2023-01-29T05:03:50.330Z,1.80
2023-01-29T05:06:19.075Z,1.88
2023-01-29T05:08:49.217Z,1.97
2023-01-29T05:11:19.371Z,1.98
2023-01-29T05:13:52.317Z,1.89
2023-01-29T05:16:23.927Z,1.91
2023-01-29T05:18:50.736Z,2.03
2023-01-29T05:21:17.342Z,2.06
2023-01-29T05:23:53.257Z,1.98
2023-01-29T05:26:39.971Z,1.99
2023-01-29T05:29:07.197Z,2.08
2023-01-29T05:31:38.429Z,2.09
2023-01-29T05:34:07.083Z,2.09
2023-01-29T05:36:33.629Z,2.07
2023-01-29T05:39:00.177Z,2.07
2023-01-29T05:41:26.864Z,2.09
2023-01-29T05:43:53.611Z,2.08
2023-01-29T05:46:22.546Z,2.12
2023-01-29T05:48:49.107Z,2.09
2023-01-29T05:51:15.643Z,2.07
2023-01-29T05:53:42.208Z,1.67
2023-01-29T05:56:08.965Z,2.13
2023-01-29T05:58:35.873Z,2.14
2023-01-29T06:01:12.332Z,2.15
2023-01-29T06:03:38.934Z,2.15
2023-01-29T06:06:05.684Z,2.13
2023-01-29T06:08:34.819Z,2.09
2023-01-29T06:11:01.428Z,2.18
2023-01-29T06:13:28.306Z,2.24
2023-01-29T06:15:54.887Z,2.25
2023-01-29T06:18:21.595Z,2.27
2023-01-29T06:20:50.382Z,2.28
2023-01-29T06:23:16.988Z,2.28
2023-01-29T06:25:43.581Z,2.31
2023-01-29T06:28:13.044Z,2.32
2023-01-29T06:30:39.654Z,2.34
2023-01-29T06:33:06.301Z,2.24
2023-01-29T06:35:32.873Z,2.37
2023-01-29T06:37:59.460Z,2.31
2023-01-29T06:40:26.104Z,2.38
2023-01-29T06:42:52.778Z,2.39
2023-01-29T06:45:19.442Z,2.39
2023-01-29T06:47:46.034Z,2.38
2023-01-29T06:50:12.624Z,2.41
2023-01-29T06:52:39.191Z,2.40
2023-01-29T06:55:08.763Z,2.38
2023-01-29T06:57:35.807Z,1.99
2023-01-29T07:00:04.839Z,2.43
2023-01-29T07:02:31.462Z,2.17
2023-01-29T07:04:58.124Z,2.44
2023-01-29T07:07:27.026Z,2.45
2023-01-29T07:09:58.432Z,2.36
2023-01-29T07:12:24.973Z,2.41
2023-01-29T07:14:53.940Z,2.46
2023-01-29T07:17:21.286Z,2.46
2023-01-29T07:19:47.868Z,2.46
2023-01-29T07:22:14.760Z,2.43
2023-01-29T07:24:43.938Z,2.46
2023-01-29T07:27:10.575Z,2.48
2023-01-29T07:29:37.137Z,2.48
2023-01-29T07:32:03.903Z,2.50
2023-01-29T07:34:31.145Z,2.50
2023-01-29T07:36:57.737Z,2.51
2023-01-29T07:39:24.391Z,2.03
2023-01-29T07:41:51.005Z,2.47
2023-01-29T07:44:17.652Z,2.46
2023-01-29T07:46:44.347Z,2.54
2023-01-29T07:49:13.195Z,2.56
2023-01-29T07:51:39.714Z,2.46
2023-01-29T07:54:08.852Z,2.51
2023-01-29T07:56:35.425Z,2.53
2023-01-29T07:59:02.041Z,2.56
2023-01-29T08:01:31.013Z,2.61
2023-01-29T08:03:57.612Z,2.61
2023-01-29T08:06:24.315Z,2.54
2023-01-29T08:08:52.207Z,2.63
2023-01-29T08:11:21.412Z,2.64
2023-01-29T08:13:47.978Z,2.65
2023-01-29T08:16:14.672Z,2.61
2023-01-29T08:18:44.100Z,2.71
2023-01-29T08:21:12.265Z,2.72
2023-01-29T08:23:39.759Z,2.70
2023-01-29T08:26:08.564Z,2.74
2023-01-29T08:28:36.650Z,2.73
2023-01-29T08:31:03.247Z,2.75
2023-01-29T08:33:38.954Z,2.83
2023-01-29T08:36:06.320Z,2.74
2023-01-29T08:38:32.933Z,2.84
2023-01-29T08:40:59.470Z,2.86
2023-01-29T08:43:26.067Z,2.93
2023-01-29T08:45:52.765Z,2.99
2023-01-29T08:48:22.177Z,3.02
2023-01-29T08:50:48.788Z,2.55
2023-01-29T08:53:15.396Z,3.08
2023-01-29T08:55:42.178Z,2.36
2023-01-29T08:58:12.467Z,3.08
2023-01-29T09:00:39.363Z,3.17
2023-01-29T09:03:07.964Z,3.06
2023-01-29T09:05:35.681Z,3.20
2023-01-29T09:08:04.506Z,3.23
2023-01-29T09:10:33.810Z,3.22
2023-01-29T09:13:00.754Z,3.10
2023-01-29T09:15:27.999Z,3.21
2023-01-29T09:17:54.548Z,3.39
2023-01-29T09:20:23.946Z,3.38
2023-01-29T09:22:53.656Z,3.45
2023-01-29T09:25:20.713Z,3.44
2023-01-29T09:27:47.271Z,3.48
2023-01-29T09:30:16.768Z,3.44
2023-01-29T09:32:53.248Z,3.51
2023-01-29T09:35:24.330Z,3.53
2023-01-29T09:37:51.567Z,3.54
2023-01-29T09:40:30.117Z,3.55
2023-01-29T09:43:20.465Z,3.53
2023-01-29T09:46:15.196Z,3.55
2023-01-29T09:48:43.008Z,3.56
2023-01-29T09:51:23.825Z,3.54
2023-01-29T09:54:05.016Z,3.53
2023-01-29T09:56:32.175Z,3.58
2023-01-29T09:59:01.559Z,3.61
2023-01-29T10:01:37.829Z,3.70
2023-01-29T10:04:13.830Z,3.71
2023-01-29T10:06:50.711Z,3.60
2023-01-29T10:09:45.101Z,3.75
2023-01-29T10:12:41.367Z,3.77
2023-01-29T10:15:39.028Z,3.77
2023-01-29T10:18:30.491Z,3.79
2023-01-29T10:21:12.415Z,4.01
2023-01-29T10:23:44.197Z,3.96
2023-01-29T10:26:12.779Z,3.96
2023-01-29T10:28:46.291Z,3.64
2023-01-29T10:31:20.747Z,4.28
2023-01-29T10:34:43.038Z,4.43
2023-01-29T10:37:19.390Z,4.25
2023-01-29T10:39:46.282Z,4.32
2023-01-29T10:42:27.234Z,4.15
2023-01-29T10:45:12.411Z,4.35
2023-01-29T10:47:57.511Z,4.35
2023-01-29T10:50:50.906Z,4.36
2023-01-29T10:53:20.218Z,4.48
2023-01-29T10:55:56.047Z,4.76
2023-01-29T10:58:53.671Z,4.60
2023-01-29T11:01:20.482Z,4.74
2023-01-29T11:03:58.459Z,4.64
2023-01-29T11:06:30.513Z,4.81
2023-01-29T11:09:20.350Z,4.85
2023-01-29T11:12:17.794Z,4.91
2023-01-29T11:14:51.808Z,4.78
2023-01-29T11:17:21.567Z,4.89
2023-01-29T11:19:51.754Z,4.73
2023-01-29T11:22:29.369Z,4.80
2023-01-29T11:25:10.536Z,4.76
2023-01-29T11:27:46.399Z,4.86
2023-01-29T11:30:24.611Z,4.91
2023-01-29T11:33:00.637Z,4.87
2023-01-29T11:35:30.718Z,4.91
2023-01-29T11:38:18.606Z,4.92
2023-01-29T11:40:45.923Z,4.98
2023-01-29T11:43:19.935Z,4.97
2023-01-29T11:45:48.080Z,4.99
2023-01-29T11:48:26.601Z,4.99
2023-01-29T11:51:04.860Z,5.17
2023-01-29T11:53:42.264Z,5.25
2023-01-29T11:56:27.897Z,5.24
2023-01-29T11:58:57.779Z,5.24
2023-01-29T12:01:40.875Z,5.22
2023-01-29T12:04:24.716Z,4.66
2023-01-29T12:06:53.444Z,5.26
2023-01-29T12:09:24.343Z,5.16
2023-01-29T12:11:52.729Z,5.09
2023-01-29T12:14:30.219Z,5.05
2023-01-29T12:17:19.575Z,5.04
2023-01-29T12:20:02.117Z,4.97
2023-01-29T12:23:02.610Z,4.95
2023-01-29T12:25:45.935Z,4.92
2023-01-29T12:28:39.045Z,4.82
2023-01-29T12:31:23.931Z,4.91
2023-01-29T12:34:17.329Z,4.89
2023-01-29T12:36:59.470Z,4.94
2023-01-29T12:39:26.480Z,4.92
2023-01-29T12:42:13.991Z,4.73
2023-01-29T12:44:52.200Z,4.92
2023-01-29T12:47:31.959Z,5.11
2023-01-29T12:50:05.573Z,5.05
2023-01-29T12:52:45.093Z,5.05
2023-01-29T12:55:16.513Z,5.08
2023-01-29T12:57:59.334Z,4.91
2023-01-29T13:00:32.131Z,5.03
2023-01-29T13:03:03.918Z,5.08
2023-01-29T13:05:39.524Z,5.08
2023-01-29T13:08:16.393Z,5.08
2023-01-29T13:10:50.956Z,5.15
2023-01-29T13:13:36.228Z,5.16
2023-01-29T13:16:07.514Z,5.09
2023-01-29T13:18:40.092Z,5.16
2023-01-29T13:21:12.125Z,4.99
2023-01-29T13:23:44.126Z,5.17
2023-01-29T13:26:13.835Z,5.16
2023-01-29T13:28:44.696Z,5.15
2023-01-29T13:31:33.190Z,5.13
2023-01-29T13:34:15.090Z,5.14
2023-01-29T13:36:47.037Z,5.11
2023-01-29T13:39:28.764Z,5.09
2023-01-29T13:41:57.067Z,5.07
2023-01-29T13:44:32.746Z,5.08
2023-01-29T13:46:59.397Z,5.09
2023-01-29T13:49:33.505Z,5.06
2023-01-29T13:52:18.787Z,5.04
2023-01-29T13:55:05.190Z,5.04
2023-01-29T13:57:44.041Z,5.04
2023-01-29T14:00:24.352Z,5.08
2023-01-29T14:02:56.876Z,5.15
2023-01-29T14:05:31.936Z,5.19
2023-01-29T14:08:44.524Z,5.19
2023-01-29T14:11:16.978Z,5.17
2023-01-29T14:13:46.719Z,5.19
2023-01-29T14:16:13.290Z,5.20
2023-01-29T14:18:59.531Z,5.13
2023-01-29T14:21:31.955Z,5.22
2023-01-29T14:24:21.000Z,5.03
2023-01-29T14:26:51.650Z,5.24
2023-01-29T14:29:33.798Z,5.12
2023-01-29T14:32:07.690Z,5.27
2023-01-29T14:34:41.633Z,5.27
2023-01-29T14:37:17.316Z,5.29
2023-01-29T14:39:52.180Z,5.29
2023-01-29T14:42:22.296Z,5.31
2023-01-29T14:44:58.469Z,5.31
2023-01-29T14:47:28.122Z,5.32
2023-01-29T14:50:00.368Z,5.31
2023-01-29T14:52:33.382Z,5.25
2023-01-29T14:55:04.243Z,5.25
2023-01-29T14:57:31.775Z,5.33
2023-01-29T15:00:05.486Z,5.30
2023-01-29T15:02:42.112Z,5.30
2023-01-29T15:05:17.507Z,5.28
2023-01-29T15:08:19.381Z,5.29
2023-01-29T15:11:10.943Z,5.29
2023-01-29T15:13:57.887Z,5.18
2023-01-29T15:16:36.918Z,5.25
2023-01-29T15:19:29.083Z,5.25
2023-01-29T15:22:26.149Z,5.24
2023-01-29T15:25:12.862Z,4.97
2023-01-29T15:27:44.524Z,5.18
2023-01-29T15:30:21.972Z,5.06
2023-01-29T15:32:51.657Z,4.58
2023-01-29T15:35:29.223Z,5.13
2023-01-29T15:38:00.137Z,5.11
2023-01-29T15:40:27.742Z,4.98
2023-01-29T15:42:54.471Z,5.02
2023-01-29T15:45:22.816Z,5.05
2023-01-29T15:47:50.388Z,4.97
2023-01-29T15:50:19.763Z,5.01
2023-01-29T15:52:51.466Z,4.96
2023-01-29T15:55:20.899Z,4.86
2023-01-29T15:57:48.215Z,4.86
2023-01-29T16:00:27.700Z,4.93
2023-01-29T16:02:54.820Z,4.92
2023-01-29T16:05:27.292Z,4.91
2023-01-29T16:07:55.647Z,4.73
2023-01-29T16:10:30.613Z,4.73
2023-01-29T16:12:58.496Z,4.89
2023-01-29T16:15:37.197Z,4.72
2023-01-29T16:18:20.692Z,4.85
2023-01-29T16:20:52.223Z,4.84
2023-01-29T16:23:28.218Z,4.82
2023-01-29T16:26:05.892Z,4.70
2023-01-29T16:28:32.790Z,4.77
2023-01-29T16:31:03.865Z,4.78
2023-01-29T16:33:37.686Z,4.78
2023-01-29T16:36:12.876Z,4.78
2023-01-29T16:38:43.265Z,4.62
2023-01-29T16:41:12.759Z,4.76
2023-01-29T16:43:50.092Z,4.75
2023-01-29T16:46:19.864Z,4.75
2023-01-29T16:48:47.739Z,4.67
2023-01-29T16:51:38.620Z,4.75
2023-01-29T16:54:22.289Z,4.75
2023-01-29T16:56:56.172Z,4.73
2023-01-29T16:59:43.258Z,4.73
2023-01-29T17:02:28.567Z,4.72
2023-01-29T17:05:02.229Z,4.73
2023-01-29T17:07:29.689Z,4.73
2023-01-29T17:10:01.065Z,4.73
2023-01-29T17:12:29.440Z,4.74
2023-01-29T17:15:03.084Z,4.72
2023-01-29T17:17:32.453Z,4.72
2023-01-29T17:20:11.429Z,4.71
2023-01-29T17:22:38.083Z,4.70
2023-01-29T17:25:05.098Z,4.70
2023-01-29T17:27:31.978Z,4.58
2023-01-29T17:29:59.196Z,4.70
2023-01-29T17:32:44.155Z,4.68
2023-01-29T17:35:14.339Z,4.63
2023-01-29T17:37:41.124Z,4.59
2023-01-29T17:40:39.742Z,4.65
2023-01-29T17:43:07.561Z,4.57
2023-01-29T17:45:34.171Z,4.58
2023-01-29T17:48:00.806Z,4.65
2023-01-29T17:50:30.496Z,4.27
2023-01-29T17:52:57.261Z,4.61
2023-01-29T17:55:23.903Z,4.51
2023-01-29T17:57:50.457Z,4.61
2023-01-29T18:00:20.771Z,4.46
2023-01-29T18:02:49.584Z,4.63
2023-01-29T18:05:17.610Z,4.57
2023-01-29T18:07:46.608Z,4.64
2023-01-29T18:10:17.564Z,4.66
2023-01-29T18:12:44.507Z,4.67
2023-01-29T18:15:11.971Z,4.65
2023-01-29T18:17:39.715Z,4.05
2023-01-29T18:20:25.498Z,4.66
2023-01-29T18:22:52.570Z,4.67
2023-01-29T18:25:19.573Z,4.56
2023-01-29T18:27:46.441Z,4.63
2023-01-29T18:30:13.952Z,4.66
2023-01-29T18:32:40.910Z,4.66
2023-01-29T18:35:08.162Z,4.68
2023-01-29T18:37:35.263Z,4.68
2023-01-29T18:40:01.870Z,4.68
2023-01-29T18:42:31.822Z,4.70
2023-01-29T18:44:58.378Z,4.59
2023-01-29T18:47:25.771Z,4.68
2023-01-29T18:49:52.406Z,4.67
2023-01-29T18:52:18.997Z,4.63
2023-01-29T18:54:47.886Z,4.33
2023-01-29T18:58:28.042Z,4.68
2023-01-29T19:00:00.993Z,4.66
2023-01-29T19:02:30.240Z,4.63
2023-01-29T19:04:56.910Z,4.68
2023-01-29T19:07:23.543Z,4.67
2023-01-29T19:09:50.549Z,4.66
2023-01-29T19:12:17.528Z,4.66
2023-01-29T19:14:44.253Z,4.68
2023-01-29T19:17:10.887Z,4.66
2023-01-29T19:19:37.427Z,4.57
2023-01-29T19:22:04.023Z,4.67
2023-01-29T19:24:36.248Z,4.67
2023-01-29T19:27:06.677Z,4.66
2023-01-29T19:29:33.546Z,4.35
2023-01-29T19:32:00.161Z,4.67
2023-01-29T19:34:26.767Z,4.66
2023-01-29T19:36:53.324Z,4.67
2023-01-29T19:39:22.508Z,4.67
2023-01-29T19:41:51.535Z,4.68
2023-01-29T19:44:18.063Z,4.47
2023-01-29T19:46:46.846Z,4.66
2023-01-29T19:49:13.439Z,4.67
2023-01-29T19:51:40.959Z,4.68
2023-01-29T19:54:09.435Z,4.68
2023-01-29T19:56:36.415Z,4.68
2023-01-29T19:59:05.033Z,4.69
2023-01-29T20:01:34.224Z,4.67
2023-01-29T20:04:00.789Z,4.63
2023-01-29T20:06:31.000Z,4.67
2023-01-29T20:08:57.959Z,4.68
2023-01-29T20:11:25.439Z,4.64
2023-01-29T20:13:52.996Z,4.58
2023-01-29T20:16:23.450Z,4.27
2023-01-29T20:18:50.223Z,4.57
2023-01-29T20:21:22.086Z,4.68
2023-01-29T20:23:50.866Z,4.65
2023-01-29T20:26:18.439Z,4.71
2023-01-29T20:28:48.360Z,4.71
2023-01-29T20:31:15.543Z,4.71
2023-01-29T20:33:42.208Z,4.72
2023-01-29T20:36:10.774Z,4.76
2023-01-29T20:38:37.807Z,4.74
2023-01-29T20:41:07.819Z,4.78
2023-01-29T20:43:36.969Z,4.78
2023-01-29T20:46:04.159Z,4.80
2023-01-29T20:48:31.892Z,4.65
2023-01-29T20:51:07.989Z,4.80
2023-01-29T20:53:35.337Z,4.80
2023-01-29T20:56:04.164Z,4.82
2023-01-29T20:58:31.050Z,4.36
2023-01-29T21:00:58.032Z,4.84
2023-01-29T21:03:24.893Z,4.87
2023-01-29T21:05:52.348Z,4.55
2023-01-29T21:08:19.043Z,4.85
2023-01-29T21:10:45.824Z,4.89
2023-01-29T21:13:12.492Z,4.73
2023-01-29T21:15:39.099Z,4.94
2023-01-29T21:18:06.623Z,4.94
2023-01-29T21:20:35.528Z,4.58
2023-01-29T21:23:06.946Z,4.97
2023-01-29T21:25:36.138Z,4.98
2023-01-29T21:28:04.435Z,4.98
2023-01-29T21:30:31.222Z,4.98
2023-01-29T21:32:57.819Z,4.94
2023-01-29T21:35:24.396Z,4.97
2023-01-29T21:37:51.030Z,3.98
2023-01-29T21:40:18.271Z,5.02
2023-01-29T21:43:03.935Z,4.61
2023-01-29T21:45:34.733Z,5.04
2023-01-29T21:48:02.251Z,4.97
2023-01-29T21:50:31.280Z,5.05
2023-01-29T21:53:00.551Z,4.99
2023-01-29T21:55:27.142Z,5.07
2023-01-29T21:57:53.996Z,5.07
2023-01-29T22:00:20.708Z,5.09
2023-01-29T22:02:47.553Z,5.11
2023-01-29T22:05:19.185Z,5.11
2023-01-29T22:07:47.158Z,5.13
2023-01-29T22:10:14.349Z,5.15
2023-01-29T22:12:41.287Z,5.16
2023-01-29T22:15:08.615Z,5.09
2023-01-29T22:17:35.385Z,5.16
2023-01-29T22:20:02.321Z,5.10
2023-01-29T22:22:29.039Z,5.18
2023-01-29T22:24:57.651Z,5.13
2023-01-29T22:27:27.553Z,5.00
2023-01-29T22:29:56.220Z,5.22
2023-01-29T22:32:22.756Z,5.23
2023-01-29T22:34:51.695Z,5.18
2023-01-29T22:37:18.258Z,5.25
2023-01-29T22:39:44.846Z,5.26
2023-01-29T22:42:11.505Z,5.08
2023-01-29T22:44:38.115Z,5.13
2023-01-29T22:47:04.732Z,5.22
2023-01-29T22:49:31.553Z,5.11
2023-01-29T22:52:18.429Z,4.92
2023-01-29T22:54:44.988Z,5.30
2023-01-29T22:57:13.661Z,5.31
2023-01-29T22:59:42.748Z,5.22
2023-01-29T23:02:09.608Z,5.33
2023-01-29T23:04:36.293Z,5.34
2023-01-29T23:07:03.640Z,5.35
2023-01-29T23:09:30.215Z,5.35
2023-01-29T23:11:56.750Z,5.38
2023-01-29T23:14:25.629Z,5.30
2023-01-29T23:16:54.574Z,5.36
2023-01-29T23:19:21.250Z,5.39
2023-01-29T23:21:47.862Z,5.41
2023-01-29T23:24:16.948Z,5.33
2023-01-29T23:27:02.236Z,5.25
2023-01-29T23:29:28.849Z,5.41
2023-01-29T23:31:55.516Z,5.15
2023-01-29T23:34:22.179Z,5.41
2023-01-29T23:36:48.859Z,5.36
2023-01-29T23:39:15.532Z,5.44
2023-01-29T23:41:42.344Z,5.39
2023-01-29T23:44:09.017Z,5.49
2023-01-29T23:46:37.867Z,5.40
2023-01-29T23:49:04.483Z,5.53
2023-01-29T23:51:31.221Z,5.52
2023-01-29T23:53:57.959Z,5.50
2023-01-29T23:56:24.833Z,5.48
2023-01-29T23:58:56.009Z,5.57
